sensor_id;sensor_type;location;lat;lon;timestamp;P1;durP1;ratioP1;P2;durP2;ratioP2
37805;SDS011;25082;50.870;0.022;2022-10-13T00:01:18;4.63;;;1.38;;
37805;SDS011;25082;50.870;0.022;2022-10-13T00:03:46;2.83;;;1.20;;
37805;SDS011;25082;50.870;0.022;2022-10-13T00:06:13;1.67;;;0.93;;
37805;SDS011;25082;50.870;0.022;2022-10-13T00:08:41;7.00;;;1.65;;
37805;SDS011;25082;50.870;0.022;2022-10-13T00:11:14;3.80;;;1.70;;
37805;SDS011;25082;50.870;0.022;2022-10-13T00:13:41;5.07;;;1.67;;
37805;SDS011;25082;50.870;0.022;2022-10-13T00:16:08;5.03;;;1.60;;
37805;SDS011;25082;50.870;0.022;2022-10-13T00:18:36;2.30;;;0.90;;
37805;SDS011;25082;50.870;0.022;2022-10-13T00:21:05;4.93;;;1.55;;
37805;SDS011;25082;50.870;0.022;2022-10-13T00:23:35;3.55;;;1.48;;
37805;SDS011;25082;50.870;0.022;2022-10-13T00:26:06;4.53;;;1.30;;
37805;SDS011;25082;50.870;0.022;2022-10-13T00:28:33;3.20;;;1.23;;
37805;SDS011;25082;50.870;0.022;2022-10-13T00:30:59;4.45;;;1.30;;
37805;SDS011;25082;50.870;0.022;2022-10-13T00:33:25;2.38;;;1.00;;
37805;SDS011;25082;50.870;0.022;2022-10-13T00:35:51;3.97;;;1.30;;
37805;SDS011;25082;50.870;0.022;2022-10-13T00:38:18;6.28;;;1.58;;
37805;SDS011;25082;50.870;0.022;2022-10-13T00:40:48;3.97;;;1.10;;
37805;SDS011;25082;50.870;0.022;2022-10-13T00:45:47;3.47;;;1.23;;
37805;SDS011;25082;50.870;0.022;2022-10-13T00:48:15;2.30;;;0.77;;
37805;SDS011;25082;50.870;0.022;2022-10-13T00:50:48;6.82;;;1.38;;
37805;SDS011;25082;50.870;0.022;2022-10-13T00:53:15;2.67;;;1.13;;
37805;SDS011;25082;50.870;0.022;2022-10-13T00:55:43;3.13;;;0.95;;
37805;SDS011;25082;50.870;0.022;2022-10-13T00:58:10;3.08;;;1.23;;
37805;SDS011;25082;50.870;0.022;2022-10-13T01:00:41;2.90;;;1.38;;
37805;SDS011;25082;50.870;0.022;2022-10-13T01:03:09;2.58;;;0.90;;
37805;SDS011;25082;50.870;0.022;2022-10-13T01:05:35;3.92;;;0.80;;
37805;SDS011;25082;50.870;0.022;2022-10-13T01:08:03;3.35;;;1.02;;
37805;SDS011;25082;50.870;0.022;2022-10-13T01:13:34;3.80;;;1.20;;
37805;SDS011;25082;50.870;0.022;2022-10-13T01:21:39;1.77;;;0.80;;
37805;SDS011;25082;50.870;0.022;2022-10-13T01:37:30;2.47;;;0.70;;
37805;SDS011;25082;50.870;0.022;2022-10-13T01:40:15;3.20;;;1.02;;
37805;SDS011;25082;50.870;0.022;2022-10-13T01:43:03;0.87;;;0.60;;
37805;SDS011;25082;50.870;0.022;2022-10-13T01:45:36;1.05;;;0.63;;
37805;SDS011;25082;50.870;0.022;2022-10-13T01:48:07;2.83;;;1.05;;
37805;SDS011;25082;50.870;0.022;2022-10-13T01:50:34;3.42;;;0.88;;
37805;SDS011;25082;50.870;0.022;2022-10-13T01:53:03;2.10;;;0.75;;
37805;SDS011;25082;50.870;0.022;2022-10-13T01:55:30;1.13;;;0.70;;
37805;SDS011;25082;50.870;0.022;2022-10-13T01:57:56;1.30;;;0.70;;
37805;SDS011;25082;50.870;0.022;2022-10-13T02:00:22;1.02;;;0.50;;
37805;SDS011;25082;50.870;0.022;2022-10-13T02:05:59;2.53;;;0.57;;
37805;SDS011;25082;50.870;0.022;2022-10-13T02:08:37;1.42;;;0.77;;
37805;SDS011;25082;50.870;0.022;2022-10-13T02:11:13;2.92;;;0.77;;
37805;SDS011;25082;50.870;0.022;2022-10-13T02:16:38;2.00;;;0.70;;
37805;SDS011;25082;50.870;0.022;2022-10-13T02:19:07;0.88;;;0.50;;
37805;SDS011;25082;50.870;0.022;2022-10-13T02:21:35;1.50;;;0.73;;
37805;SDS011;25082;50.870;0.022;2022-10-13T02:24:04;1.50;;;0.55;;
37805;SDS011;25082;50.870;0.022;2022-10-13T02:26:31;1.98;;;0.70;;
37805;SDS011;25082;50.870;0.022;2022-10-13T02:28:58;1.25;;;0.75;;
37805;SDS011;25082;50.870;0.022;2022-10-13T02:31:24;1.60;;;0.63;;
37805;SDS011;25082;50.870;0.022;2022-10-13T02:33:50;2.38;;;0.60;;
37805;SDS011;25082;50.870;0.022;2022-10-13T02:36:15;2.00;;;0.55;;
37805;SDS011;25082;50.870;0.022;2022-10-13T02:38:42;0.60;;;0.47;;
37805;SDS011;25082;50.870;0.022;2022-10-13T02:41:08;1.23;;;0.50;;
37805;SDS011;25082;50.870;0.022;2022-10-13T02:43:34;1.60;;;0.50;;
37805;SDS011;25082;50.870;0.022;2022-10-13T02:46:02;1.23;;;0.32;;
37805;SDS011;25082;50.870;0.022;2022-10-13T02:48:28;0.65;;;0.40;;
37805;SDS011;25082;50.870;0.022;2022-10-13T02:50:53;3.72;;;0.98;;
37805;SDS011;25082;50.870;0.022;2022-10-13T02:53:19;0.70;;;0.43;;
37805;SDS011;25082;50.870;0.022;2022-10-13T02:55:45;0.65;;;0.30;;
37805;SDS011;25082;50.870;0.022;2022-10-13T02:58:12;1.42;;;0.60;;
37805;SDS011;25082;50.870;0.022;2022-10-13T03:00:38;0.63;;;0.52;;
37805;SDS011;25082;50.870;0.022;2022-10-13T03:03:04;1.33;;;0.82;;
37805;SDS011;25082;50.870;0.022;2022-10-13T03:05:30;1.15;;;0.40;;
37805;SDS011;25082;50.870;0.022;2022-10-13T03:07:55;1.17;;;0.60;;
37805;SDS011;25082;50.870;0.022;2022-10-13T03:10:21;2.78;;;0.70;;
37805;SDS011;25082;50.870;0.022;2022-10-13T03:12:47;1.02;;;0.45;;
37805;SDS011;25082;50.870;0.022;2022-10-13T03:15:13;0.70;;;0.35;;
37805;SDS011;25082;50.870;0.022;2022-10-13T03:17:38;0.73;;;0.50;;
37805;SDS011;25082;50.870;0.022;2022-10-13T03:20:05;0.60;;;0.25;;
37805;SDS011;25082;50.870;0.022;2022-10-13T03:22:32;2.10;;;0.65;;
37805;SDS011;25082;50.870;0.022;2022-10-13T03:24:58;0.68;;;0.40;;
37805;SDS011;25082;50.870;0.022;2022-10-13T03:27:23;1.50;;;0.60;;
37805;SDS011;25082;50.870;0.022;2022-10-13T03:29:49;2.88;;;0.82;;
37805;SDS011;25082;50.870;0.022;2022-10-13T03:32:15;0.40;;;0.40;;
37805;SDS011;25082;50.870;0.022;2022-10-13T03:34:41;2.17;;;0.80;;
37805;SDS011;25082;50.870;0.022;2022-10-13T03:37:07;1.58;;;0.70;;
37805;SDS011;25082;50.870;0.022;2022-10-13T03:39:33;3.47;;;0.55;;
37805;SDS011;25082;50.870;0.022;2022-10-13T03:41:58;1.38;;;0.55;;
37805;SDS011;25082;50.870;0.022;2022-10-13T03:44:24;0.73;;;0.32;;
37805;SDS011;25082;50.870;0.022;2022-10-13T03:46:50;1.58;;;0.38;;
37805;SDS011;25082;50.870;0.022;2022-10-13T03:49:16;0.77;;;0.40;;
37805;SDS011;25082;50.870;0.022;2022-10-13T03:51:43;0.90;;;0.60;;
37805;SDS011;25082;50.870;0.022;2022-10-13T03:54:10;1.92;;;0.60;;
37805;SDS011;25082;50.870;0.022;2022-10-13T03:56:36;1.65;;;0.60;;
37805;SDS011;25082;50.870;0.022;2022-10-13T03:59:03;0.90;;;0.40;;
37805;SDS011;25082;50.870;0.022;2022-10-13T04:01:29;1.17;;;0.52;;
37805;SDS011;25082;50.870;0.022;2022-10-13T04:03:56;2.78;;;0.68;;
37805;SDS011;25082;50.870;0.022;2022-10-13T04:06:23;0.73;;;0.47;;
37805;SDS011;25082;50.870;0.022;2022-10-13T04:08:50;1.48;;;0.55;;
37805;SDS011;25082;50.870;0.022;2022-10-13T04:11:18;0.73;;;0.40;;
37805;SDS011;25082;50.870;0.022;2022-10-13T04:13:44;1.95;;;0.68;;
37805;SDS011;25082;50.870;0.022;2022-10-13T04:16:14;1.40;;;0.57;;
37805;SDS011;25082;50.870;0.022;2022-10-13T04:21:23;1.77;;;0.50;;
37805;SDS011;25082;50.870;0.022;2022-10-13T04:23:49;1.83;;;0.73;;
37805;SDS011;25082;50.870;0.022;2022-10-13T04:26:19;0.88;;;0.47;;
37805;SDS011;25082;50.870;0.022;2022-10-13T04:28:47;1.05;;;0.45;;
37805;SDS011;25082;50.870;0.022;2022-10-13T04:31:14;3.40;;;0.52;;
37805;SDS011;25082;50.870;0.022;2022-10-13T04:33:40;1.75;;;0.50;;
37805;SDS011;25082;50.870;0.022;2022-10-13T04:36:06;1.92;;;0.47;;
37805;SDS011;25082;50.870;0.022;2022-10-13T04:38:34;1.00;;;0.50;;
37805;SDS011;25082;50.870;0.022;2022-10-13T04:41:03;1.33;;;0.45;;
37805;SDS011;25082;50.870;0.022;2022-10-13T04:43:31;0.50;;;0.30;;
37805;SDS011;25082;50.870;0.022;2022-10-13T04:46:01;0.70;;;0.35;;
37805;SDS011;25082;50.870;0.022;2022-10-13T04:48:28;1.27;;;0.38;;
37805;SDS011;25082;50.870;0.022;2022-10-13T04:51:04;0.70;;;0.40;;
37805;SDS011;25082;50.870;0.022;2022-10-13T04:53:31;0.73;;;0.43;;
37805;SDS011;25082;50.870;0.022;2022-10-13T04:56:01;0.55;;;0.40;;
37805;SDS011;25082;50.870;0.022;2022-10-13T04:58:28;1.02;;;0.40;;
37805;SDS011;25082;50.870;0.022;2022-10-13T05:00:54;0.82;;;0.40;;
37805;SDS011;25082;50.870;0.022;2022-10-13T05:03:20;0.50;;;0.43;;
37805;SDS011;25082;50.870;0.022;2022-10-13T05:05:46;1.13;;;0.50;;
37805;SDS011;25082;50.870;0.022;2022-10-13T05:08:12;2.20;;;0.30;;
37805;SDS011;25082;50.870;0.022;2022-10-13T05:10:37;1.40;;;0.50;;
37805;SDS011;25082;50.870;0.022;2022-10-13T05:13:03;0.55;;;0.50;;
37805;SDS011;25082;50.870;0.022;2022-10-13T05:15:29;1.10;;;0.60;;
37805;SDS011;25082;50.870;0.022;2022-10-13T05:17:55;0.90;;;0.52;;
37805;SDS011;25082;50.870;0.022;2022-10-13T05:20:22;0.47;;;0.35;;
37805;SDS011;25082;50.870;0.022;2022-10-13T05:22:47;2.30;;;0.50;;
37805;SDS011;25082;50.870;0.022;2022-10-13T05:25:13;0.50;;;0.32;;
37805;SDS011;25082;50.870;0.022;2022-10-13T05:27:39;2.13;;;0.50;;
37805;SDS011;25082;50.870;0.022;2022-10-13T05:30:04;0.40;;;0.32;;
37805;SDS011;25082;50.870;0.022;2022-10-13T05:32:31;1.80;;;0.55;;
37805;SDS011;25082;50.870;0.022;2022-10-13T05:34:59;1.38;;;0.43;;
37805;SDS011;25082;50.870;0.022;2022-10-13T05:37:25;0.80;;;0.32;;
37805;SDS011;25082;50.870;0.022;2022-10-13T05:39:51;1.00;;;0.40;;
37805;SDS011;25082;50.870;0.022;2022-10-13T05:42:17;0.93;;;0.52;;
37805;SDS011;25082;50.870;0.022;2022-10-13T05:44:43;2.28;;;0.40;;
37805;SDS011;25082;50.870;0.022;2022-10-13T05:47:08;1.70;;;0.40;;
37805;SDS011;25082;50.870;0.022;2022-10-13T05:49:34;0.73;;;0.40;;
37805;SDS011;25082;50.870;0.022;2022-10-13T05:52:03;0.65;;;0.40;;
37805;SDS011;25082;50.870;0.022;2022-10-13T05:54:34;2.00;;;0.40;;
37805;SDS011;25082;50.870;0.022;2022-10-13T05:57:10;0.90;;;0.50;;
37805;SDS011;25082;50.870;0.022;2022-10-13T05:59:43;0.90;;;0.57;;
37805;SDS011;25082;50.870;0.022;2022-10-13T06:02:16;1.95;;;0.70;;
37805;SDS011;25082;50.870;0.022;2022-10-13T06:04:46;0.63;;;0.50;;
37805;SDS011;25082;50.870;0.022;2022-10-13T06:07:16;0.50;;;0.40;;
37805;SDS011;25082;50.870;0.022;2022-10-13T06:09:42;0.50;;;0.40;;
37805;SDS011;25082;50.870;0.022;2022-10-13T06:12:08;0.70;;;0.47;;
37805;SDS011;25082;50.870;0.022;2022-10-13T06:14:34;2.90;;;0.57;;
37805;SDS011;25082;50.870;0.022;2022-10-13T06:17:00;0.55;;;0.30;;
37805;SDS011;25082;50.870;0.022;2022-10-13T06:19:26;1.38;;;0.45;;
37805;SDS011;25082;50.870;0.022;2022-10-13T06:21:51;1.17;;;0.30;;
37805;SDS011;25082;50.870;0.022;2022-10-13T06:24:17;1.17;;;0.25;;
37805;SDS011;25082;50.870;0.022;2022-10-13T06:26:43;0.90;;;0.65;;
37805;SDS011;25082;50.870;0.022;2022-10-13T06:29:09;1.08;;;0.47;;
37805;SDS011;25082;50.870;0.022;2022-10-13T06:31:34;1.60;;;0.68;;
37805;SDS011;25082;50.870;0.022;2022-10-13T06:34:00;1.58;;;0.47;;
37805;SDS011;25082;50.870;0.022;2022-10-13T06:36:26;1.05;;;0.50;;
37805;SDS011;25082;50.870;0.022;2022-10-13T06:38:52;0.40;;;0.35;;
37805;SDS011;25082;50.870;0.022;2022-10-13T06:41:18;0.45;;;0.45;;
37805;SDS011;25082;50.870;0.022;2022-10-13T06:43:44;0.50;;;0.20;;
37805;SDS011;25082;50.870;0.022;2022-10-13T06:46:10;1.70;;;0.60;;
37805;SDS011;25082;50.870;0.022;2022-10-13T06:48:36;0.95;;;0.50;;
37805;SDS011;25082;50.870;0.022;2022-10-13T06:51:09;0.70;;;0.47;;
37805;SDS011;25082;50.870;0.022;2022-10-13T06:53:35;1.30;;;0.50;;
37805;SDS011;25082;50.870;0.022;2022-10-13T06:56:03;1.17;;;0.50;;
37805;SDS011;25082;50.870;0.022;2022-10-13T06:58:29;0.20;;;0.20;;
37805;SDS011;25082;50.870;0.022;2022-10-13T07:00:56;2.10;;;0.45;;
37805;SDS011;25082;50.870;0.022;2022-10-13T07:03:22;0.88;;;0.50;;
37805;SDS011;25082;50.870;0.022;2022-10-13T07:05:49;0.35;;;0.28;;
37805;SDS011;25082;50.870;0.022;2022-10-13T07:08:15;0.70;;;0.40;;
37805;SDS011;25082;50.870;0.022;2022-10-13T07:10:41;0.28;;;0.22;;
37805;SDS011;25082;50.870;0.022;2022-10-13T07:13:07;0.30;;;0.25;;
37805;SDS011;25082;50.870;0.022;2022-10-13T07:15:33;0.85;;;0.50;;
37805;SDS011;25082;50.870;0.022;2022-10-13T07:18:03;1.48;;;0.35;;
37805;SDS011;25082;50.870;0.022;2022-10-13T07:20:28;0.55;;;0.40;;
37805;SDS011;25082;50.870;0.022;2022-10-13T07:22:54;1.38;;;0.25;;
37805;SDS011;25082;50.870;0.022;2022-10-13T07:25:20;0.47;;;0.40;;
37805;SDS011;25082;50.870;0.022;2022-10-13T07:27:46;0.38;;;0.20;;
37805;SDS011;25082;50.870;0.022;2022-10-13T07:30:12;0.98;;;0.50;;
37805;SDS011;25082;50.870;0.022;2022-10-13T07:32:38;0.28;;;0.28;;
37805;SDS011;25082;50.870;0.022;2022-10-13T07:35:06;0.50;;;0.40;;
37805;SDS011;25082;50.870;0.022;2022-10-13T07:37:33;0.20;;;0.20;;
37805;SDS011;25082;50.870;0.022;2022-10-13T07:39:59;1.08;;;0.60;;
37805;SDS011;25082;50.870;0.022;2022-10-13T07:42:25;1.02;;;0.38;;
37805;SDS011;25082;50.870;0.022;2022-10-13T07:44:51;0.90;;;0.52;;
37805;SDS011;25082;50.870;0.022;2022-10-13T07:47:17;0.45;;;0.25;;
37805;SDS011;25082;50.870;0.022;2022-10-13T07:49:42;3.60;;;1.00;;
37805;SDS011;25082;50.870;0.022;2022-10-13T07:52:08;0.32;;;0.30;;
37805;SDS011;25082;50.870;0.022;2022-10-13T07:54:34;0.40;;;0.30;;
37805;SDS011;25082;50.870;0.022;2022-10-13T07:57:00;0.63;;;0.47;;
37805;SDS011;25082;50.870;0.022;2022-10-13T07:59:27;1.63;;;0.55;;
37805;SDS011;25082;50.870;0.022;2022-10-13T08:01:53;1.38;;;0.57;;
37805;SDS011;25082;50.870;0.022;2022-10-13T08:04:18;0.55;;;0.30;;
37805;SDS011;25082;50.870;0.022;2022-10-13T08:06:44;12.55;;;1.42;;
37805;SDS011;25082;50.870;0.022;2022-10-13T08:09:10;1.08;;;0.50;;
37805;SDS011;25082;50.870;0.022;2022-10-13T08:11:36;1.38;;;0.55;;
37805;SDS011;25082;50.870;0.022;2022-10-13T08:14:03;1.70;;;0.50;;
37805;SDS011;25082;50.870;0.022;2022-10-13T08:16:29;2.05;;;0.50;;
37805;SDS011;25082;50.870;0.022;2022-10-13T08:18:57;3.63;;;0.75;;
37805;SDS011;25082;50.870;0.022;2022-10-13T08:21:23;2.47;;;0.43;;
37805;SDS011;25082;50.870;0.022;2022-10-13T08:23:51;2.92;;;0.68;;
37805;SDS011;25082;50.870;0.022;2022-10-13T08:26:18;3.47;;;0.70;;
37805;SDS011;25082;50.870;0.022;2022-10-13T08:28:48;0.98;;;0.47;;
37805;SDS011;25082;50.870;0.022;2022-10-13T08:31:14;1.00;;;0.50;;
37805;SDS011;25082;50.870;0.022;2022-10-13T08:33:41;0.55;;;0.47;;
37805;SDS011;25082;50.870;0.022;2022-10-13T08:36:07;1.17;;;0.50;;
37805;SDS011;25082;50.870;0.022;2022-10-13T08:38:33;1.15;;;0.63;;
37805;SDS011;25082;50.870;0.022;2022-10-13T08:40:59;1.02;;;0.40;;
37805;SDS011;25082;50.870;0.022;2022-10-13T08:43:25;1.15;;;0.50;;
37805;SDS011;25082;50.870;0.022;2022-10-13T08:45:54;1.17;;;0.43;;
37805;SDS011;25082;50.870;0.022;2022-10-13T08:48:29;0.68;;;0.50;;
37805;SDS011;25082;50.870;0.022;2022-10-13T08:50:58;0.63;;;0.50;;
37805;SDS011;25082;50.870;0.022;2022-10-13T08:53:37;1.08;;;0.77;;
37805;SDS011;25082;50.870;0.022;2022-10-13T08:58:34;0.57;;;0.50;;
37805;SDS011;25082;50.870;0.022;2022-10-13T09:01:16;2.00;;;0.50;;
37805;SDS011;25082;50.870;0.022;2022-10-13T09:03:52;0.82;;;0.55;;
37805;SDS011;25082;50.870;0.022;2022-10-13T09:06:22;1.25;;;0.35;;
37805;SDS011;25082;50.870;0.022;2022-10-13T09:11:28;1.55;;;0.52;;
37805;SDS011;25082;50.870;0.022;2022-10-13T09:13:58;2.30;;;0.40;;
37805;SDS011;25082;50.870;0.022;2022-10-13T09:16:36;0.90;;;0.50;;
37805;SDS011;25082;50.870;0.022;2022-10-13T09:21:44;0.47;;;0.30;;
37805;SDS011;25082;50.870;0.022;2022-10-13T09:24:13;1.08;;;0.52;;
37805;SDS011;25082;50.870;0.022;2022-10-13T09:26:40;0.60;;;0.40;;
37805;SDS011;25082;50.870;0.022;2022-10-13T09:29:08;0.50;;;0.40;;
37805;SDS011;25082;50.870;0.022;2022-10-13T09:31:39;0.50;;;0.38;;
37805;SDS011;25082;50.870;0.022;2022-10-13T09:34:12;0.65;;;0.40;;
37805;SDS011;25082;50.870;0.022;2022-10-13T09:39:23;0.30;;;0.30;;
37805;SDS011;25082;50.870;0.022;2022-10-13T09:41:49;0.70;;;0.40;;
37805;SDS011;25082;50.870;0.022;2022-10-13T09:44:25;1.30;;;0.55;;
37805;SDS011;25082;50.870;0.022;2022-10-13T09:46:57;1.05;;;0.40;;
37805;SDS011;25082;50.870;0.022;2022-10-13T09:49:38;0.55;;;0.45;;
37805;SDS011;25082;50.870;0.022;2022-10-13T09:54:43;1.40;;;0.52;;
37805;SDS011;25082;50.870;0.022;2022-10-13T10:05:26;2.38;;;0.60;;
37805;SDS011;25082;50.870;0.022;2022-10-13T10:07:57;1.58;;;0.55;;
37805;SDS011;25082;50.870;0.022;2022-10-13T10:10:35;1.55;;;0.57;;
37805;SDS011;25082;50.870;0.022;2022-10-13T10:13:03;2.55;;;0.50;;
37805;SDS011;25082;50.870;0.022;2022-10-13T10:15:35;1.27;;;0.50;;
37805;SDS011;25082;50.870;0.022;2022-10-13T10:29:23;3.25;;;0.88;;
37805;SDS011;25082;50.870;0.022;2022-10-13T10:34:47;6.68;;;0.88;;
37805;SDS011;25082;50.870;0.022;2022-10-13T10:37:19;4.07;;;1.13;;
37805;SDS011;25082;50.870;0.022;2022-10-13T10:43:06;5.72;;;0.70;;
37805;SDS011;25082;50.870;0.022;2022-10-13T10:45:55;1.42;;;0.50;;
37805;SDS011;25082;50.870;0.022;2022-10-13T10:48:24;10.77;;;1.00;;
37805;SDS011;25082;50.870;0.022;2022-10-13T10:50:59;5.13;;;1.30;;
37805;SDS011;25082;50.870;0.022;2022-10-13T10:53:48;9.65;;;0.80;;
37805;SDS011;25082;50.870;0.022;2022-10-13T11:01:57;6.88;;;0.60;;
37805;SDS011;25082;50.870;0.022;2022-10-13T11:07:08;2.95;;;0.70;;
37805;SDS011;25082;50.870;0.022;2022-10-13T11:12:25;6.50;;;0.70;;
37805;SDS011;25082;50.870;0.022;2022-10-13T11:15:09;3.72;;;0.77;;
37805;SDS011;25082;50.870;0.022;2022-10-13T11:17:38;15.18;;;1.17;;
37805;SDS011;25082;50.870;0.022;2022-10-13T11:25:36;7.43;;;0.82;;
37805;SDS011;25082;50.870;0.022;2022-10-13T11:30:49;9.05;;;0.85;;
37805;SDS011;25082;50.870;0.022;2022-10-13T11:41:45;3.35;;;0.75;;
37805;SDS011;25082;50.870;0.022;2022-10-13T11:44:29;8.23;;;1.25;;
37805;SDS011;25082;50.870;0.022;2022-10-13T11:55:16;8.90;;;0.80;;
37805;SDS011;25082;50.870;0.022;2022-10-13T11:57:46;3.35;;;0.85;;
37805;SDS011;25082;50.870;0.022;2022-10-13T12:00:13;3.80;;;0.47;;
37805;SDS011;25082;50.870;0.022;2022-10-13T12:02:47;2.28;;;0.57;;
37805;SDS011;25082;50.870;0.022;2022-10-13T12:07:46;2.30;;;0.40;;
37805;SDS011;25082;50.870;0.022;2022-10-13T12:10:16;2.25;;;0.50;;
37805;SDS011;25082;50.870;0.022;2022-10-13T12:12:49;1.80;;;0.68;;
37805;SDS011;25082;50.870;0.022;2022-10-13T12:15:29;3.22;;;0.57;;
37805;SDS011;25082;50.870;0.022;2022-10-13T12:17:59;2.97;;;0.52;;
37805;SDS011;25082;50.870;0.022;2022-10-13T12:20:30;3.22;;;0.70;;
37805;SDS011;25082;50.870;0.022;2022-10-13T12:22:57;1.50;;;0.60;;
37805;SDS011;25082;50.870;0.022;2022-10-13T12:25:23;2.22;;;0.50;;
37805;SDS011;25082;50.870;0.022;2022-10-13T12:27:53;7.90;;;0.80;;
37805;SDS011;25082;50.870;0.022;2022-10-13T12:30:21;2.15;;;0.52;;
37805;SDS011;25082;50.870;0.022;2022-10-13T12:33:01;2.25;;;0.80;;
37805;SDS011;25082;50.870;0.022;2022-10-13T12:35:29;3.17;;;0.50;;
37805;SDS011;25082;50.870;0.022;2022-10-13T12:37:57;1.73;;;0.73;;
37805;SDS011;25082;50.870;0.022;2022-10-13T12:40:26;7.05;;;0.73;;
37805;SDS011;25082;50.870;0.022;2022-10-13T12:42:53;7.22;;;1.60;;
37805;SDS011;25082;50.870;0.022;2022-10-13T12:45:20;2.60;;;0.80;;
37805;SDS011;25082;50.870;0.022;2022-10-13T12:47:49;4.05;;;1.00;;
37805;SDS011;25082;50.870;0.022;2022-10-13T12:52:52;1.50;;;0.70;;
37805;SDS011;25082;50.870;0.022;2022-10-13T12:58:21;0.70;;;0.40;;
37805;SDS011;25082;50.870;0.022;2022-10-13T13:03:36;2.08;;;0.60;;
37805;SDS011;25082;50.870;0.022;2022-10-13T13:08:37;1.63;;;0.52;;
37805;SDS011;25082;50.870;0.022;2022-10-13T13:11:18;2.67;;;0.50;;
37805;SDS011;25082;50.870;0.022;2022-10-13T13:17:04;1.63;;;0.55;;
37805;SDS011;25082;50.870;0.022;2022-10-13T13:19:43;1.15;;;0.60;;
37805;SDS011;25082;50.870;0.022;2022-10-13T13:22:11;2.55;;;1.13;;
37805;SDS011;25082;50.870;0.022;2022-10-13T13:24:36;1.73;;;1.08;;
37805;SDS011;25082;50.870;0.022;2022-10-13T13:27:09;3.03;;;1.30;;
37805;SDS011;25082;50.870;0.022;2022-10-13T13:29:47;2.13;;;1.25;;
37805;SDS011;25082;50.870;0.022;2022-10-13T13:32:14;3.03;;;1.20;;
37805;SDS011;25082;50.870;0.022;2022-10-13T13:34:41;1.65;;;0.90;;
37805;SDS011;25082;50.870;0.022;2022-10-13T13:37:27;2.75;;;1.10;;
37805;SDS011;25082;50.870;0.022;2022-10-13T13:39:55;1.17;;;0.88;;
37805;SDS011;25082;50.870;0.022;2022-10-13T13:42:22;1.50;;;0.90;;
37805;SDS011;25082;50.870;0.022;2022-10-13T13:44:48;1.25;;;0.70;;
37805;SDS011;25082;50.870;0.022;2022-10-13T13:47:14;2.15;;;1.10;;
37805;SDS011;25082;50.870;0.022;2022-10-13T13:49:44;1.63;;;0.80;;
37805;SDS011;25082;50.870;0.022;2022-10-13T13:52:10;1.35;;;0.60;;
37805;SDS011;25082;50.870;0.022;2022-10-13T13:54:36;1.05;;;0.73;;
37805;SDS011;25082;50.870;0.022;2022-10-13T13:57:02;3.13;;;0.60;;
37805;SDS011;25082;50.870;0.022;2022-10-13T13:59:28;1.42;;;0.60;;
37805;SDS011;25082;50.870;0.022;2022-10-13T14:01:53;5.22;;;0.80;;
37805;SDS011;25082;50.870;0.022;2022-10-13T14:04:19;1.55;;;0.50;;
37805;SDS011;25082;50.870;0.022;2022-10-13T14:06:45;3.47;;;0.90;;
37805;SDS011;25082;50.870;0.022;2022-10-13T14:09:10;1.80;;;0.50;;
37805;SDS011;25082;50.870;0.022;2022-10-13T14:11:36;2.33;;;0.47;;
37805;SDS011;25082;50.870;0.022;2022-10-13T14:14:02;2.30;;;0.75;;
37805;SDS011;25082;50.870;0.022;2022-10-13T14:16:27;0.65;;;0.40;;
37805;SDS011;25082;50.870;0.022;2022-10-13T14:18:55;4.93;;;0.63;;
37805;SDS011;25082;50.870;0.022;2022-10-13T14:21:21;0.90;;;0.55;;
37805;SDS011;25082;50.870;0.022;2022-10-13T14:23:47;2.33;;;0.60;;
37805;SDS011;25082;50.870;0.022;2022-10-13T14:26:12;4.20;;;0.57;;
37805;SDS011;25082;50.870;0.022;2022-10-13T14:28:39;9.00;;;1.20;;
37805;SDS011;25082;50.870;0.022;2022-10-13T14:31:06;7.47;;;1.02;;
37805;SDS011;25082;50.870;0.022;2022-10-13T14:33:33;7.18;;;1.08;;
37805;SDS011;25082;50.870;0.022;2022-10-13T14:36:03;2.38;;;0.80;;
37805;SDS011;25082;50.870;0.022;2022-10-13T14:38:30;1.60;;;0.60;;
37805;SDS011;25082;50.870;0.022;2022-10-13T14:40:57;1.65;;;0.50;;
37805;SDS011;25082;50.870;0.022;2022-10-13T14:43:26;4.45;;;0.77;;
37805;SDS011;25082;50.870;0.022;2022-10-13T14:45:52;3.05;;;0.63;;
37805;SDS011;25082;50.870;0.022;2022-10-13T14:48:19;3.13;;;0.82;;
37805;SDS011;25082;50.870;0.022;2022-10-13T14:50:45;5.47;;;0.60;;
37805;SDS011;25082;50.870;0.022;2022-10-13T14:53:11;5.72;;;0.68;;
37805;SDS011;25082;50.870;0.022;2022-10-13T14:55:40;0.90;;;0.50;;
37805;SDS011;25082;50.870;0.022;2022-10-13T14:58:06;0.98;;;0.65;;
37805;SDS011;25082;50.870;0.022;2022-10-13T15:00:32;1.95;;;0.70;;
37805;SDS011;25082;50.870;0.022;2022-10-13T15:02:58;4.15;;;0.93;;
37805;SDS011;25082;50.870;0.022;2022-10-13T15:05:24;0.90;;;0.52;;
37805;SDS011;25082;50.870;0.022;2022-10-13T15:07:49;1.88;;;0.57;;
37805;SDS011;25082;50.870;0.022;2022-10-13T15:10:15;1.52;;;0.68;;
37805;SDS011;25082;50.870;0.022;2022-10-13T15:12:41;3.60;;;0.70;;
37805;SDS011;25082;50.870;0.022;2022-10-13T15:15:07;1.85;;;1.10;;
37805;SDS011;25082;50.870;0.022;2022-10-13T15:17:33;1.17;;;0.90;;
37805;SDS011;25082;50.870;0.022;2022-10-13T15:20:00;1.48;;;0.50;;
37805;SDS011;25082;50.870;0.022;2022-10-13T15:22:27;3.03;;;0.88;;
37805;SDS011;25082;50.870;0.022;2022-10-13T15:24:53;1.67;;;0.50;;
37805;SDS011;25082;50.870;0.022;2022-10-13T15:27:19;2.47;;;0.50;;
37805;SDS011;25082;50.870;0.022;2022-10-13T15:29:45;1.75;;;0.88;;
37805;SDS011;25082;50.870;0.022;2022-10-13T15:32:11;0.90;;;0.40;;
37805;SDS011;25082;50.870;0.022;2022-10-13T15:34:44;0.88;;;0.50;;
37805;SDS011;25082;50.870;0.022;2022-10-13T15:37:10;1.15;;;0.57;;
37805;SDS011;25082;50.870;0.022;2022-10-13T15:39:36;1.10;;;0.60;;
37805;SDS011;25082;50.870;0.022;2022-10-13T15:42:03;1.65;;;0.82;;
37805;SDS011;25082;50.870;0.022;2022-10-13T15:44:31;0.85;;;0.60;;
37805;SDS011;25082;50.870;0.022;2022-10-13T15:46:57;0.77;;;0.60;;
37805;SDS011;25082;50.870;0.022;2022-10-13T15:49:23;0.93;;;0.57;;
37805;SDS011;25082;50.870;0.022;2022-10-13T15:51:50;2.13;;;0.45;;
37805;SDS011;25082;50.870;0.022;2022-10-13T15:54:16;2.72;;;0.50;;
37805;SDS011;25082;50.870;0.022;2022-10-13T15:56:42;1.17;;;0.40;;
37805;SDS011;25082;50.870;0.022;2022-10-13T15:59:08;1.25;;;0.77;;
37805;SDS011;25082;50.870;0.022;2022-10-13T16:01:34;1.75;;;0.50;;
37805;SDS011;25082;50.870;0.022;2022-10-13T16:04:00;1.80;;;0.60;;
37805;SDS011;25082;50.870;0.022;2022-10-13T16:06:25;1.20;;;0.60;;
37805;SDS011;25082;50.870;0.022;2022-10-13T16:08:51;0.73;;;0.43;;
37805;SDS011;25082;50.870;0.022;2022-10-13T16:11:18;0.80;;;0.57;;
37805;SDS011;25082;50.870;0.022;2022-10-13T16:13:46;0.68;;;0.40;;
37805;SDS011;25082;50.870;0.022;2022-10-13T16:16:13;0.68;;;0.68;;
37805;SDS011;25082;50.870;0.022;2022-10-13T16:18:39;1.70;;;0.60;;
37805;SDS011;25082;50.870;0.022;2022-10-13T16:23:45;3.33;;;0.77;;
37805;SDS011;25082;50.870;0.022;2022-10-13T16:26:11;0.45;;;0.30;;
37805;SDS011;25082;50.870;0.022;2022-10-13T16:28:37;1.15;;;0.60;;
37805;SDS011;25082;50.870;0.022;2022-10-13T16:31:03;0.88;;;0.30;;
37805;SDS011;25082;50.870;0.022;2022-10-13T16:33:39;0.40;;;0.40;;
37805;SDS011;25082;50.870;0.022;2022-10-13T16:36:07;0.45;;;0.45;;
37805;SDS011;25082;50.870;0.022;2022-10-13T16:38:34;1.23;;;0.75;;
37805;SDS011;25082;50.870;0.022;2022-10-13T16:41:03;0.77;;;0.57;;
37805;SDS011;25082;50.870;0.022;2022-10-13T16:43:30;0.57;;;0.57;;
37805;SDS011;25082;50.870;0.022;2022-10-13T16:45:57;10.05;;;1.33;;
37805;SDS011;25082;50.870;0.022;2022-10-13T16:48:24;9.57;;;1.25;;
37805;SDS011;25082;50.870;0.022;2022-10-13T16:50:50;7.50;;;0.90;;
37805;SDS011;25082;50.870;0.022;2022-10-13T16:53:15;2.40;;;1.02;;
37805;SDS011;25082;50.870;0.022;2022-10-13T16:55:42;2.55;;;1.13;;
37805;SDS011;25082;50.870;0.022;2022-10-13T16:58:08;3.97;;;1.15;;
37805;SDS011;25082;50.870;0.022;2022-10-13T17:00:34;4.22;;;1.20;;